Time;durP1;ratioP1;P1;durP2;ratioP2;P2;SDS_P1;SDS_P2;PMS_P1;PMS_P2;Temp;Humidity;BMP_temperature;BMP_pressure;BME280_temperature;BME280_humidity;BME280_pressure;Samples;Min_cycle;Max_cycle;Signal;HPM_P1;HPM_P2
2022/08/18 00:01:12;;;;;;;7.60;5.47;;;;;;;22.56;59.08;100111.84;5079816;28;20024;-68
2022/08/18 00:03:40;;;;;;;6.63;4.97;;;;;;;22.59;59.09;100119.44;5079304;28;20274;-69
2022/08/18 00:06:05;;;;;;;6.95;5.30;;;;;;;22.62;59.48;100120.81;5084199;28;20024;-71
2022/08/18 00:08:31;;;;;;;6.30;5.30;;;;;;;22.66;59.28;100128.19;5083636;28;20047;-68
2022/08/18 00:10:57;;;;;;;7.03;4.43;;;;;;;22.69;59.38;100121.50;5081679;28;20047;-67
2022/08/18 00:13:22;;;;;;;7.00;4.88;;;;;;;22.68;59.57;100120.69;5083586;28;20290;-68
2022/08/18 00:15:49;;;;;;;6.15;4.60;;;;;;;22.72;59.54;100120.22;5083284;28;20040;-68
2022/08/18 00:18:14;;;;;;;6.53;4.60;;;;;;;22.74;59.39;100120.78;5083035;28;20040;-68
2022/08/18 00:20:40;;;;;;;4.82;4.10;;;;;;;22.71;59.57;100119.38;5068905;28;20032;-68
2022/08/18 00:23:05;;;;;;;5.13;4.50;;;;;;;22.63;59.99;100120.59;5068464;28;20024;-69
2022/08/18 00:25:30;;;;;;;6.78;4.95;;;;;;;22.67;59.98;100124.44;5078538;28;20502;-68
2022/08/18 00:27:55;;;;;;;5.30;4.32;;;;;;;22.70;59.76;100115.06;5082033;28;20086;-68
2022/08/18 00:30:21;;;;;;;4.40;4.00;;;;;;;22.61;59.94;100114.63;5085900;28;20039;-68
2022/08/18 00:32:50;;;;;;;4.90;4.40;;;;;;;22.61;60.28;100119.19;5081012;28;20270;-68
2022/08/18 00:35:25;;;;;;;8.13;4.22;;;;;;;22.62;60.09;100121.66;5082768;28;20032;-68
2022/08/18 00:37:51;;;;;;;4.68;4.10;;;;;;;22.64;59.70;100121.41;5082910;28;20040;-68
2022/08/18 00:40:21;;;;;;;4.95;4.30;;;;;;;22.64;59.84;100122.25;5080145;28;20400;-69
2022/08/18 00:42:50;;;;;;;4.82;4.18;;;;;;;22.61;59.34;100109.22;5083329;28;20048;-68
2022/08/18 00:45:21;;;;;;;6.10;3.58;;;;;;;22.61;59.82;100111.13;5084062;28;20028;-67
2022/08/18 00:47:46;;;;;;;;;;;;;;;22.57;59.83;100116.19;5083454;28;20036;-68
2022/08/18 00:50:32;;;;;;;4.13;3.43;;;;;;;22.55;59.68;100109.38;5083978;28;19916;-68
2022/08/18 00:53:02;;;;;;;4.30;3.50;;;;;;;22.52;59.72;100105.28;5082461;28;20055;-69
2022/08/18 00:55:29;;;;;;;4.78;3.53;;;;;;;22.47;59.89;100097.94;5083778;28;20032;-68
2022/08/18 00:58:02;;;;;;;6.07;3.58;;;;;;;22.47;59.66;100102.50;5084180;28;20036;-71
2022/08/18 01:00:27;;;;;;;5.93;3.92;;;;;;;22.40;60.00;100099.94;5084615;28;20516;-67
2022/08/18 01:03:00;;;;;;;6.15;4.00;;;;;;;22.37;60.47;100096.94;5064661;28;20048;-68
2022/08/18 01:05:33;;;;;;;4.90;3.60;;;;;;;22.37;59.96;100108.50;5080553;28;20381;-68
2022/08/18 01:07:59;;;;;;;4.63;3.78;;;;;;;22.34;60.04;100117.09;5081868;28;20178;-68
2022/08/18 01:10:25;;;;;;;5.68;3.47;;;;;;;22.31;60.12;100117.56;5079629;28;20028;-67
2022/08/18 01:12:55;;;;;;;5.53;3.90;;;;;;;22.29;60.24;100113.47;5066749;28;20069;-70
2022/08/18 01:15:23;;;;;;;5.43;4.10;;;;;;;22.24;60.14;100117.69;5085671;28;20051;-68
2022/08/18 01:21:49;;;;;;;4.72;3.90;;;;;;;22.15;60.76;100115.59;5088596;28;20034;-69
2022/08/18 01:23:46;;;;;;;4.10;3.45;;;;;;;22.06;60.76;100117.81;5086458;28;20199;-68
2022/08/18 01:26:13;;;;;;;4.47;3.85;;;;;;;22.00;61.08;100118.75;5085143;28;20049;-70
2022/08/18 01:28:40;;;;;;;4.97;3.88;;;;;;;21.95;61.03;100115.97;5086803;28;20040;-68
2022/08/18 01:31:08;;;;;;;5.32;3.40;;;;;;;21.90;60.98;100102.41;5086604;28;20029;-67
2022/08/18 01:33:37;;;;;;;5.90;3.67;;;;;;;21.90;60.99;100105.09;5088291;28;20039;-68
2022/08/18 01:36:09;;;;;;;5.63;4.32;;;;;;;21.85;61.01;100109.31;5086384;28;20038;-69
2022/08/18 01:38:34;;;;;;;5.55;3.88;;;;;;;21.85;60.97;100103.94;5084864;28;20040;-68
2022/08/18 01:40:59;;;;;;;5.00;3.80;;;;;;;21.80;60.78;100103.81;5081867;28;20033;-68
2022/08/18 01:43:25;;;;;;;5.25;4.25;;;;;;;21.77;60.97;100098.09;5086265;28;20028;-67
2022/08/18 01:45:51;;;;;;;6.13;4.15;;;;;;;21.78;60.81;100097.03;5087382;28;20025;-68
2022/08/18 01:48:16;;;;;;;5.53;4.05;;;;;;;21.73;60.63;100092.34;5070477;28;20054;-68
2022/08/18 01:50:44;;;;;;;5.45;4.00;;;;;;;21.70;60.79;100102.78;5086116;28;20024;-68
2022/08/18 01:53:10;;;;;;;4.63;3.60;;;;;;;21.69;60.58;100101.97;5086849;28;20123;-68
2022/08/18 01:55:37;;;;;;;4.50;3.67;;;;;;;21.61;60.67;100088.88;5086536;28;20039;-67
2022/08/18 01:58:05;;;;;;;5.10;3.90;;;;;;;21.59;61.04;100096.34;5085586;28;20666;-68
2022/08/18 02:00:31;;;;;;;4.72;3.83;;;;;;;21.56;61.10;100088.75;5083799;28;20035;-68
2022/08/18 02:02:58;;;;;;;6.53;3.70;;;;;;;21.49;61.34;100091.56;5087895;28;20044;-67
2022/08/18 02:05:30;;;;;;;5.07;3.42;;;;;;;21.50;61.49;100092.38;5088852;28;20021;-68
2022/08/18 02:07:56;;;;;;;4.05;3.60;;;;;;;21.48;61.30;100089.13;5085290;28;20055;-68
2022/08/18 02:10:21;;;;;;;6.00;3.25;;;;;;;21.48;61.46;100089.94;5086300;28;20051;-68
2022/08/18 02:12:47;;;;;;;5.43;3.42;;;;;;;21.47;61.67;100087.47;5067600;28;20101;-68
2022/08/18 02:15:12;;;;;;;5.75;3.85;;;;;;;21.43;61.98;100103.28;5086847;28;20044;-67
2022/08/18 02:17:39;;;;;;;3.97;3.58;;;;;;;21.42;61.71;100099.75;5087050;28;20060;-68
2022/08/18 02:20:07;;;;;;;4.13;3.72;;;;;;;21.42;61.71;100083.59;5085547;28;20680;-68
2022/08/18 02:22:33;;;;;;;4.70;3.50;;;;;;;21.40;61.72;100088.41;5087380;28;20480;-68
2022/08/18 02:24:58;;;;;;;5.43;3.65;;;;;;;21.39;62.05;100080.53;5084765;28;20040;-68
2022/08/18 02:27:25;;;;;;;4.05;3.65;;;;;;;21.34;62.33;100083.13;5085821;28;20037;-68
2022/08/18 02:29:51;;;;;;;3.97;3.40;;;;;;;21.31;62.28;100083.56;5085053;28;20439;-67
2022/08/18 02:32:16;;;;;;;4.90;3.70;;;;;;;21.33;62.19;100087.69;5088842;28;20089;-69
2022/08/18 02:34:41;;;;;;;5.03;3.60;;;;;;;21.35;62.17;100084.75;5084744;28;20032;-68
2022/08/18 02:37:07;;;;;;;4.03;3.60;;;;;;;21.35;61.86;100090.13;5086824;28;20290;-67
2022/08/18 02:39:36;;;;;;;5.05;3.90;;;;;;;21.32;62.54;100088.72;5082642;28;20512;-70
2022/08/18 02:42:06;;;;;;;4.88;3.80;;;;;;;21.28;62.86;100084.84;5085864;28;20161;-67
2022/08/18 02:44:31;;;;;;;3.95;3.55;;;;;;;21.25;62.76;100088.03;5088151;28;20033;-67
2022/08/18 02:46:57;;;;;;;4.15;3.50;;;;;;;21.22;62.99;100091.19;5079954;28;20040;-68
2022/08/18 02:49:23;;;;;;;5.10;3.47;;;;;;;21.19;63.04;100094.34;5080348;28;20241;-68
2022/08/18 02:51:50;;;;;;;4.00;3.42;;;;;;;21.20;62.90;100093.28;5086748;28;20497;-68
2022/08/18 02:54:17;;;;;;;4.68;3.53;;;;;;;21.21;62.79;100092.22;5087315;28;20105;-68
2022/08/18 02:56:44;;;;;;;5.00;3.60;;;;;;;21.23;62.77;100087.44;5085858;28;20416;-68
2022/08/18 02:59:15;;;;;;;4.40;3.70;;;;;;;21.24;62.80;100090.94;5068259;28;20029;-68
2022/08/18 03:01:43;;;;;;;4.63;3.50;;;;;;;21.26;62.54;100096.91;5084057;28;20043;-68
2022/08/18 03:04:11;;;;;;;4.22;3.83;;;;;;;21.23;62.69;100084.75;5085029;28;20480;-68
2022/08/18 03:06:38;;;;;;;5.80;3.50;;;;;;;21.26;62.63;100080.75;5087022;28;20036;-68
2022/08/18 03:09:05;;;;;;;5.07;3.80;;;;;;;21.23;62.82;100081.25;5084885;28;20385;-69
2022/08/18 03:11:31;;;;;;;5.03;3.60;;;;;;;21.19;62.74;100076.34;5071597;28;20033;-68
2022/08/18 03:13:57;;;;;;;4.47;3.50;;;;;;;21.19;62.72;100087.09;5086393;28;20044;-68
2022/08/18 03:16:25;;;;;;;4.57;3.60;;;;;;;21.19;62.81;100081.72;5071436;28;20333;-67
2022/08/18 03:18:52;;;;;;;4.13;3.45;;;;;;;21.21;62.61;100079.63;5084657;28;20047;-68
2022/08/18 03:21:21;;;;;;;4.57;3.42;;;;;;;21.18;63.01;100077.38;5083930;28;20036;-68
2022/08/18 03:23:47;;;;;;;4.85;3.42;;;;;;;21.17;62.89;100078.44;5083138;28;20051;-69
2022/08/18 03:26:15;;;;;;;3.65;3.25;;;;;;;21.17;63.04;100074.94;5085498;28;20032;-68
2022/08/18 03:28:46;;;;;;;4.32;3.20;;;;;;;21.18;62.81;100073.88;5084264;28;20496;-68
2022/08/18 03:31:13;;;;;;;;;;;;;;;21.14;63.31;100070.00;5087839;28;20032;-68
2022/08/18 03:33:40;;;;;;;4.40;3.20;;;;;;;21.14;63.08;100072.69;5084702;28;19939;-68
2022/08/18 03:36:13;;;;;;;4.03;3.30;;;;;;;21.16;62.98;100081.34;5084054;28;20746;-68
2022/08/18 03:38:40;;;;;;;4.60;3.42;;;;;;;21.14;62.94;100065.47;5083544;28;20051;-71
2022/08/18 03:41:07;;;;;;;4.35;3.40;;;;;;;21.11;63.12;100065.09;5078324;28;20039;-67
2022/08/18 03:43:32;;;;;;;4.25;3.30;;;;;;;21.12;63.00;100072.94;5083966;28;20032;-68
2022/08/18 03:46:08;;;;;;;3.90;3.05;;;;;;;21.13;62.96;100065.69;5083023;28;20036;-69
2022/08/18 03:48:34;;;;;;;4.75;2.92;;;;;;;21.11;63.00;100063.22;5078375;28;20036;-68
2022/08/18 03:51:08;;;;;;;3.28;2.63;;;;;;;21.13;62.68;100069.19;5084473;28;20035;-68
2022/08/18 03:53:35;;;;;;;4.07;2.63;;;;;;;21.15;62.69;100072.47;5083424;28;20032;-67
2022/08/18 03:56:05;;;;;;;3.88;2.72;;;;;;;21.14;62.86;100067.31;5086594;28;20047;-68
2022/08/18 03:58:30;;;;;;;3.20;2.90;;;;;;;21.14;62.70;100076.22;5086660;28;20028;-68
2022/08/18 04:00:55;;;;;;;4.15;2.80;;;;;;;21.12;63.01;100067.56;5084267;28;20047;-68
2022/08/18 04:03:21;;;;;;;4.28;3.42;;;;;;;21.10;63.09;100064.28;5086296;28;20098;-68
2022/08/18 04:05:46;;;;;;;3.28;2.97;;;;;;;21.06;63.15;100063.09;5067534;28;20050;-68
2022/08/18 04:08:12;;;;;;;4.57;2.97;;;;;;;21.03;63.39;100062.75;5085000;28;20040;-68
2022/08/18 04:10:37;;;;;;;3.75;2.80;;;;;;;21.02;63.28;100061.91;5084472;28;20032;-68
2022/08/18 04:13:06;;;;;;;3.60;2.92;;;;;;;21.00;63.76;100067.53;5082769;28;20043;-69
2022/08/18 04:15:32;;;;;;;3.97;2.80;;;;;;;20.97;63.98;100070.69;5085428;28;20369;-68
2022/08/18 04:17:59;;;;;;;3.33;2.90;;;;;;;20.95;63.67;100070.13;5082683;28;20400;-68
2022/08/18 04:20:24;;;;;;;4.55;3.35;;;;;;;20.92;64.06;100069.75;5084249;28;20032;-68
2022/08/18 04:22:49;;;;;;;4.78;3.30;;;;;;;20.92;64.00;100072.44;5082461;28;20035;-69
2022/08/18 04:25:15;;;;;;;2.85;2.55;;;;;;;20.92;64.10;100067.06;5083387;28;20028;-68
2022/08/18 04:27:42;;;;;;;4.10;3.22;;;;;;;20.88;64.95;100063.19;5084044;28;20175;-69
2022/08/18 04:30:08;;;;;;;4.25;3.35;;;;;;;20.88;64.47;100069.41;5084538;28;20036;-68
2022/08/18 04:32:33;;;;;;;3.15;2.50;;;;;;;21.00;64.65;100070.22;5080955;28;20413;-68
2022/08/18 04:34:59;;;;;;;3.90;2.70;;;;;;;20.81;65.17;100071.38;5071419;28;20039;-70
2022/08/18 04:37:25;;;;;;;4.30;3.25;;;;;;;20.61;65.92;100068.16;5084010;28;20351;-67
2022/08/18 04:39:50;;;;;;;3.63;2.90;;;;;;;20.55;66.21;100070.72;5079793;28;20040;-68
2022/08/18 04:42:16;;;;;;;3.88;3.35;;;;;;;20.54;66.31;100079.75;5066447;28;20040;-67
2022/08/18 04:44:41;;;;;;;5.35;3.90;;;;;;;20.48;67.01;100083.38;5082074;28;20092;-70
2022/08/18 04:47:08;;;;;;;4.85;3.67;;;;;;;20.23;67.63;100094.22;5082365;28;20032;-68
2022/08/18 04:49:34;;;;;;;5.97;4.00;;;;;;;20.18;68.01;100098.66;5082201;28;20121;-68
2022/08/18 04:54:43;;;;;;;5.25;3.70;;;;;;;20.32;67.64;100103.63;5080638;28;20109;-68
2022/08/18 04:57:17;;;;;;;4.07;3.20;;;;;;;20.39;67.24;100100.84;5085110;28;20078;-68
2022/08/18 04:59:44;;;;;;;3.92;2.92;;;;;;;20.46;67.36;100098.09;5084593;28;20028;-68
2022/08/18 05:02:11;;;;;;;5.53;3.50;;;;;;;20.47;67.11;100103.22;5081238;28;20052;-69
2022/08/18 05:04:39;;;;;;;4.05;3.40;;;;;;;20.63;67.34;100112.53;5069609;28;20405;-68
2022/08/18 05:07:06;;;;;;;4.70;3.65;;;;;;;20.57;67.51;100102.72;5080294;28;20238;-67
2022/08/18 05:09:31;;;;;;;4.70;3.80;;;;;;;20.52;67.70;100105.22;5083519;28;20102;-67
2022/08/18 05:11:57;;;;;;;4.93;3.70;;;;;;;20.50;67.80;100110.84;5086567;28;20062;-67
2022/08/18 05:14:23;;;;;;;4.97;3.25;;;;;;;20.48;67.68;100104.06;5068963;28;20400;-68
2022/08/18 05:16:48;;;;;;;4.40;3.33;;;;;;;20.36;67.82;100104.00;5073549;28;20040;-68
2022/08/18 05:19:15;;;;;;;4.22;3.65;;;;;;;20.14;69.34;100109.84;5087534;28;20430;-68
2022/08/18 05:21:41;;;;;;;5.90;3.90;;;;;;;20.08;69.41;100110.72;5079260;28;20033;-70
2022/08/18 05:24:08;;;;;;;4.75;3.95;;;;;;;20.11;69.54;100115.63;5077215;28;20040;-68
2022/08/18 05:26:34;;;;;;;5.40;3.65;;;;;;;20.17;69.52;100121.19;5072736;28;20033;-67
2022/08/18 05:29:00;;;;;;;5.13;3.90;;;;;;;20.25;69.90;100123.56;5071534;28;20515;-68
2022/08/18 05:31:27;;;;;;;;;;;;;;;20.28;69.75;100126.59;5082329;28;20037;-67
2022/08/18 05:33:54;;;;;;;4.88;3.65;;;;;;;20.35;69.08;100126.50;5079609;28;20268;-68
2022/08/18 05:36:47;;;;;;;4.10;3.50;;;;;;;20.37;69.99;100130.59;5072933;28;20068;-68
2022/08/18 05:39:36;;;;;;;4.00;3.60;;;;;;;20.44;69.00;100133.22;5076365;28;20046;-67
2022/08/18 05:42:06;;;;;;;4.20;3.80;;;;;;;20.45;69.58;100128.66;5075298;28;20057;-69
2022/08/18 05:44:36;;;;;;;4.75;4.20;;;;;;;20.45;69.88;100129.50;5083524;28;20497;-68
2022/08/18 05:47:12;;;;;;;4.22;3.83;;;;;;;20.52;69.28;100124.88;5072101;28;20033;-68
2022/08/18 05:49:39;;;;;;;5.07;3.80;;;;;;;20.56;69.46;100123.38;5071014;28;20040;-68
2022/08/18 05:52:11;;;;;;;5.40;4.05;;;;;;;20.62;69.38;100118.13;5082412;28;20052;-68
2022/08/18 05:57:50;;;;;;;4.50;3.80;;;;;;;20.79;68.76;100109.22;5074451;28;20086;-69
2022/08/18 06:00:16;;;;;;;4.28;3.40;;;;;;;20.84;68.75;100107.72;5076940;28;20097;-68
2022/08/18 06:02:50;;;;;;;4.30;3.30;;;;;;;20.93;68.54;100103.66;5087712;28;20504;-68
2022/08/18 06:05:30;;;;;;;4.15;3.75;;;;;;;20.97;68.56;100105.66;5079501;28;20028;-67
2022/08/18 06:08:07;;;;;;;5.30;4.07;;;;;;;21.00;69.03;100105.19;5088576;28;20032;-70
2022/08/18 06:10:34;;;;;;;5.75;4.10;;;;;;;21.03;69.13;100103.91;5081834;28;20040;-67
2022/08/18 06:13:01;;;;;;;5.53;4.07;;;;;;;21.09;68.68;100100.25;5069285;28;20695;-68
2022/08/18 06:15:26;;;;;;;5.32;4.53;;;;;;;21.15;68.69;100110.09;5069416;28;20404;-68
2022/08/18 06:18:19;;;;;;;5.83;4.20;;;;;;;21.20;68.65;100101.34;5075725;28;20040;-68
2022/08/18 06:21:30;;;;;;;5.88;4.40;;;;;;;21.23;69.03;100102.75;5071488;28;20044;-67
2022/08/18 06:24:24;;;;;;;5.28;3.83;;;;;;;21.29;68.25;100102.66;5063934;28;20043;-68
2022/08/18 06:26:59;;;;;;;4.82;3.97;;;;;;;21.35;68.13;100107.06;5087317;28;20039;-68
2022/08/18 06:29:33;;;;;;;5.53;3.58;;;;;;;21.45;68.07;100103.84;5078388;28;20093;-67
2022/08/18 06:32:33;;;;;;;4.30;3.20;;;;;;;21.57;67.74;100103.84;5078541;28;20150;-68
2022/08/18 06:35:17;;;;;;;4.50;3.35;;;;;;;21.65;67.58;100116.13;5079527;28;20083;-67
2022/08/18 06:40:38;;;;;;;4.65;3.35;;;;;;;21.78;67.09;100124.75;5075978;28;20139;-68
2022/08/18 06:43:10;;;;;;;4.22;3.50;;;;;;;21.79;67.08;100121.03;5087668;28;20107;-67
2022/08/18 06:45:39;;;;;;;4.47;3.80;;;;;;;21.78;67.13;100116.69;5075224;28;20115;-67
2022/08/18 06:48:21;;;;;;;4.68;4.07;;;;;;;21.80;66.94;100119.16;5070282;28;20064;-67
2022/08/18 06:50:59;;;;;;;4.05;3.08;;;;;;;21.83;67.09;100114.13;5075975;28;20040;-68
2022/08/18 06:53:55;;;;;;;4.25;3.72;;;;;;;21.85;67.12;100132.72;5085952;28;20036;-67
2022/08/18 06:56:39;;;;;;;4.10;3.60;;;;;;;21.88;66.87;100134.97;5076102;28;20051;-69
2022/08/18 06:59:30;;;;;;;5.80;3.70;;;;;;;21.87;66.84;100141.38;5074589;28;20047;-67
2022/08/18 07:02:03;;;;;;;4.30;3.28;;;;;;;21.91;66.73;100145.25;5086809;28;20055;-67
2022/08/18 07:04:42;;;;;;;5.63;3.50;;;;;;;21.91;66.85;100145.25;5069524;28;20036;-68
2022/08/18 07:07:30;;;;;;;5.15;3.97;;;;;;;21.89;67.12;100143.84;5084333;28;20299;-67
2022/08/18 07:09:56;;;;;;;5.18;3.90;;;;;;;21.89;66.83;100149.22;5077810;28;20067;-68
2022/08/18 07:12:28;;;;;;;5.93;4.22;;;;;;;21.90;66.77;100151.66;5075722;28;20256;-67
2022/08/18 07:14:58;;;;;;;6.28;4.53;;;;;;;21.83;67.06;100150.97;5070014;28;20025;-67
2022/08/18 07:17:32;;;;;;;4.35;3.92;;;;;;;21.82;67.06;100157.41;5069268;28;20028;-68
2022/08/18 07:19:59;;;;;;;3.85;3.45;;;;;;;21.85;66.78;100148.88;5076375;28;20032;-67
2022/08/18 07:22:25;;;;;;;4.25;3.53;;;;;;;21.85;67.10;100159.63;5075036;28;20036;-68
2022/08/18 07:24:55;;;;;;;4.75;3.50;;;;;;;21.83;67.16;100150.97;5071923;28;20043;-67
2022/08/18 07:27:46;;;;;;;4.53;3.63;;;;;;;21.86;67.15;100147.84;5074803;28;20092;-67
2022/08/18 07:30:18;;;;;;;5.40;3.72;;;;;;;21.89;67.08;100154.63;5082587;28;20031;-68
2022/08/18 07:33:03;;;;;;;4.20;3.67;;;;;;;21.93;67.03;100148.53;5081174;28;20044;-67
2022/08/18 07:35:39;;;;;;;6.95;4.35;;;;;;;22.00;67.01;100159.16;5083567;28;20036;-68
2022/08/18 07:38:04;;;;;;;4.50;3.95;;;;;;;22.12;66.73;100154.59;5066648;28;20083;-67
2022/08/18 07:41:02;;;;;;;6.18;4.00;;;;;;;22.25;66.47;100158.91;5069925;28;20483;-69
2022/08/18 07:43:38;;;;;;;6.95;4.70;;;;;;;22.36;66.03;100168.03;5074259;28;20539;-67
2022/08/18 07:46:11;;;;;;;4.47;3.78;;;;;;;22.46;65.83;100168.22;5085190;28;20043;-68
2022/08/18 07:48:36;;;;;;;3.97;3.30;;;;;;;22.53;65.58;100160.84;5084185;28;20067;-67
2022/08/18 07:51:28;;;;;;;3.45;2.88;;;;;;;22.61;65.43;100163.13;5077672;28;20060;-68
2022/08/18 07:53:53;;;;;;;;;;;;;;;22.60;65.58;100164.19;5070029;28;20563;-69
2022/08/18 07:56:37;;;;;;;5.13;3.80;;;;;;;22.63;65.39;100160.22;5087250;28;19916;-67
2022/08/18 07:59:15;;;;;;;3.70;3.00;;;;;;;22.66;65.44;100160.53;5069582;28;20032;-68
2022/08/18 08:01:56;;;;;;;4.53;3.40;;;;;;;22.73;65.41;100156.88;5077108;28;20071;-67
2022/08/18 08:04:22;;;;;;;;;;;;;;;22.75;65.33;100154.78;5082309;28;20036;-68
2022/08/18 08:06:52;;;;;;;5.10;3.50;;;;;;;22.74;65.28;100159.34;5076597;28;19923;-68
2022/08/18 08:09:36;;;;;;;5.53;4.57;;;;;;;22.67;65.69;100154.09;5080936;28;20028;-69
2022/08/18 08:12:22;;;;;;;7.05;4.97;;;;;;;22.54;65.90;100159.75;5079747;28;20033;-68
2022/08/18 08:14:50;;;;;;;4.85;4.05;;;;;;;22.43;66.08;100155.25;5087506;28;20050;-68
2022/08/18 08:17:41;;;;;;;7.22;4.72;;;;;;;22.34;66.44;100157.50;5080011;28;20071;-67
2022/08/18 08:20:51;;;;;;;4.30;3.50;;;;;;;22.33;66.30;100163.09;5068468;28;20029;-68
2022/08/18 08:23:16;;;;;;;5.82;4.60;;;;;;;22.22;66.79;100154.81;5049416;28;20128;-68
2022/08/18 08:26:01;;;;;;;6.37;4.97;;;;;;;22.16;67.06;100146.84;5084250;28;20119;-67
2022/08/18 08:28:46;;;;;;;6.53;4.95;;;;;;;21.94;67.51;100149.34;5081664;28;20289;-67
2022/08/18 08:31:36;;;;;;;6.32;4.97;;;;;;;21.47;69.56;100149.34;5087916;28;20029;-69
2022/08/18 08:34:04;;;;;;;7.67;5.70;;;;;;;21.27;70.33;100142.41;5082322;28;20276;-70
2022/08/18 08:36:34;;;;;;;5.28;4.38;;;;;;;21.41;69.79;100149.22;5075490;28;20043;-68
2022/08/18 08:39:27;;;;;;;5.60;4.47;;;;;;;21.53;69.91;100151.13;5067227;28;20047;-68
2022/08/18 08:41:58;;;;;;;6.32;5.30;;;;;;;21.47;70.13;100150.16;5085456;28;20141;-68
2022/08/18 08:44:35;;;;;;;6.95;5.50;;;;;;;21.43;70.11;100151.69;5066639;28;20020;-68
2022/08/18 08:47:09;;;;;;;7.05;5.38;;;;;;;21.16;71.12;100156.63;5059380;28;20040;-68
2022/08/18 08:49:54;;;;;;;6.72;5.55;;;;;;;20.86;72.21;100162.88;5068358;28;20033;-68
2022/08/18 08:52:33;;;;;;;5.75;4.45;;;;;;;20.74;72.21;100170.06;5084678;28;20188;-67
2022/08/18 08:55:03;;;;;;;5.72;3.60;;;;;;;20.65;72.68;100174.94;5069782;28;20043;-68
2022/08/18 08:57:36;;;;;;;4.38;3.85;;;;;;;20.56;73.56;100182.47;5075385;28;20033;-68
2022/08/18 09:00:06;;;;;;;5.20;4.00;;;;;;;20.56;73.67;100189.72;5070568;28;20367;-68
2022/08/18 09:02:57;;;;;;;4.75;4.07;;;;;;;20.49;74.41;100203.19;5072772;28;20036;-69
2022/08/18 09:05:27;;;;;;;4.82;3.60;;;;;;;20.58;74.55;100217.19;5073526;28;20040;-68
2022/08/18 09:08:47;;;;;;;4.90;3.90;;;;;;;20.77;74.44;100212.59;5068984;28;20029;-68
2022/08/18 09:11:30;;;;;;;4.95;4.05;;;;;;;20.90;73.76;100209.72;5080113;28;20839;-68
2022/08/18 09:14:07;;;;;;;4.00;3.47;;;;;;;20.87;73.93;100220.94;5087632;28;20503;-68
2022/08/18 09:16:45;;;;;;;4.70;4.18;;;;;;;20.87;74.54;100220.94;5069290;28;20042;-68
2022/08/18 09:19:29;;;;;;;4.80;3.90;;;;;;;20.94;74.62;100218.16;5080025;28;20055;-68
2022/08/18 09:21:57;;;;;;;5.40;4.35;;;;;;;21.09;74.47;100220.44;5067860;28;20044;-68
2022/08/18 09:24:29;;;;;;;4.97;3.90;;;;;;;21.36;73.62;100226.25;5078054;28;20029;-69
2022/08/18 09:27:03;;;;;;;4.80;4.20;;;;;;;21.67;72.95;100235.13;5073309;28;20032;-67
2022/08/18 09:29:37;;;;;;;4.05;3.47;;;;;;;21.91;72.19;100242.16;5068032;28;20054;-67
2022/08/18 09:32:17;;;;;;;5.32;4.70;;;;;;;21.77;71.80;100252.31;5068500;28;20044;-67
2022/08/18 09:35:01;;;;;;;6.70;4.93;;;;;;;21.46;73.07;100255.31;5067559;28;20040;-68
2022/08/18 09:37:37;;;;;;;8.32;6.43;;;;;;;21.21;73.74;100258.94;5068294;28;20294;-67
2022/08/18 09:43:13;;;;;;;7.45;5.65;;;;;;;21.24;73.95;100217.31;5080814;28;20144;-68
2022/08/18 09:45:48;;;;;;;5.25;4.75;;;;;;;21.46;74.14;100214.97;5071954;28;20024;-68
2022/08/18 09:48:13;;;;;;;6.05;4.68;;;;;;;21.65;74.17;100202.25;5074507;28;20492;-67
2022/08/18 09:50:54;;;;;;;5.27;4.43;;;;;;;22.00;73.46;100202.22;5075850;28;20062;-68
2022/08/18 09:53:51;;;;;;;4.90;4.30;;;;;;;22.32;72.98;100200.00;5077599;28;20041;-68
2022/08/18 09:56:48;;;;;;;5.80;4.85;;;;;;;23.19;71.15;100207.13;5077258;28;20145;-68
2022/08/18 09:59:32;;;;;;;5.72;4.30;;;;;;;24.08;68.94;100203.66;5079826;28;20063;-68
2022/08/18 10:02:05;;;;;;;8.05;6.55;;;;;;;24.56;66.60;100207.56;5071636;28;20032;-68
2022/08/18 10:04:49;;;;;;;7.05;5.65;;;;;;;24.79;65.60;100200.25;5081779;28;20043;-70
2022/08/18 10:07:17;;;;;;;7.43;6.20;;;;;;;25.05;64.18;100195.09;5071873;28;20025;-69
2022/08/18 10:09:55;;;;;;;5.35;4.53;;;;;;;25.26;63.66;100194.22;5087876;28;20032;-68
2022/08/18 10:12:29;;;;;;;5.25;4.32;;;;;;;25.40;63.62;100194.63;5072457;28;20068;-68
2022/08/18 10:15:01;;;;;;;8.20;6.35;;;;;;;25.42;62.13;100192.47;5076123;28;20059;-70
2022/08/18 10:18:03;;;;;;;6.53;5.20;;;;;;;25.38;62.27;100189.47;5085550;28;20091;-67
2022/08/18 10:20:46;;;;;;;8.52;6.50;;;;;;;25.29;61.17;100191.03;5085489;28;20067;-71
2022/08/18 10:23:46;;;;;;;6.78;5.93;;;;;;;25.50;60.95;100193.88;5072510;28;20036;-68
2022/08/18 10:26:30;;;;;;;6.78;5.53;;;;;;;25.82;60.39;100189.25;5084907;28;20031;-67
2022/08/18 10:29:07;;;;;;;7.63;6.82;;;;;;;25.67;59.03;100199.16;5071226;28;20033;-68
2022/08/18 10:31:55;;;;;;;8.82;7.43;;;;;;;25.29;59.42;100204.56;5080381;28;20032;-68
2022/08/18 10:34:54;;;;;;;6.45;5.68;;;;;;;25.32;60.12;100193.22;5068511;28;20393;-67
2022/08/18 10:37:33;;;;;;;8.95;7.63;;;;;;;25.20;60.01;100198.78;5081429;28;20220;-67
2022/08/18 10:40:00;;;;;;;9.88;8.02;;;;;;;25.16;59.82;100192.22;5077377;28;20031;-69
2022/08/18 10:42:48;;;;;;;11.25;6.90;;;;;;;24.98;60.15;100192.59;5086034;28;20056;-68
2022/08/18 10:45:23;;;;;;;9.57;7.13;;;;;;;24.57;61.54;100195.69;5082893;28;20088;-68
2022/08/18 10:48:03;;;;;;;8.45;7.15;;;;;;;24.47;61.76;100192.03;5077936;28;20028;-68
2022/08/18 10:50:37;;;;;;;8.32;7.32;;;;;;;24.31;62.28;100183.72;5084109;28;20032;-68
2022/08/18 10:53:24;;;;;;;9.70;8.15;;;;;;;23.84;64.23;100186.84;5062564;28;20033;-68
2022/08/18 10:55:59;;;;;;;8.55;6.93;;;;;;;23.69;64.77;100167.69;5085270;28;20036;-67
2022/08/18 10:59:03;;;;;;;7.80;6.95;;;;;;;23.71;66.14;100160.97;5071212;28;20040;-67
2022/08/18 11:01:28;;;;;;;8.85;7.95;;;;;;;24.73;63.69;100147.97;5074319;28;20032;-68
2022/08/18 11:04:02;;;;;;;7.82;6.57;;;;;;;27.58;55.84;100135.22;5080234;28;20040;-68
2022/08/18 11:06:35;;;;;;;9.05;7.40;;;;;;;29.08;51.43;100120.69;5088486;28;20032;-68
2022/08/18 11:09:00;;;;;;;10.05;8.00;;;;;;;28.61;51.96;100115.84;5088559;28;20458;-69
2022/08/18 11:11:34;;;;;;;6.25;5.53;;;;;;;28.22;53.64;100120.13;5074729;28;20025;-68
2022/08/18 11:14:14;;;;;;;7.82;6.68;;;;;;;27.70;53.51;100130.31;5087646;28;20093;-69
2022/08/18 11:16:49;;;;;;;8.45;7.30;;;;;;;27.26;54.78;100127.38;5070661;28;20036;-68
2022/08/18 11:19:17;;;;;;;8.82;7.90;;;;;;;27.13;54.86;100125.19;5079887;28;20037;-69
2022/08/18 11:21:49;;;;;;;8.52;6.97;;;;;;;27.19;54.44;100108.66;5083673;28;20504;-69
2022/08/18 11:24:23;;;;;;;8.27;7.30;;;;;;;28.03;52.68;100087.31;5082195;28;20396;-68
2022/08/18 11:26:55;;;;;;;9.13;8.13;;;;;;;29.50;48.98;100085.72;5086887;28;20063;-68
2022/08/18 11:29:28;;;;;;;6.97;5.72;;;;;;;29.36;48.52;100091.81;5069196;28;20063;-68
2022/08/18 11:32:18;;;;;;;8.30;6.95;;;;;;;28.84;49.46;100096.09;5087987;28;20028;-69
2022/08/18 11:34:50;;;;;;;7.55;6.72;;;;;;;28.66;50.71;100107.66;5074233;28;20074;-69
2022/08/18 11:38:14;;;;;;;7.40;6.32;;;;;;;28.68;50.29;100098.09;5072689;28;20043;-69
2022/08/18 11:40:43;;;;;;;5.88;5.03;;;;;;;28.72;51.25;100098.34;5010507;28;20103;-69
2022/08/18 11:43:08;;;;;;;6.82;6.13;;;;;;;28.66;50.78;100096.78;5072158;28;20077;-69
2022/08/18 11:45:43;;;;;;;6.53;5.78;;;;;;;28.80;50.64;100108.63;5090529;28;20294;-68
2022/08/18 11:48:33;;;;;;;6.85;6.00;;;;;;;29.06;50.42;100108.44;5075350;28;20558;-69
2022/08/18 11:51:31;;;;;;;6.00;5.40;;;;;;;29.35;49.12;100109.28;5069825;28;20048;-68
2022/08/18 11:54:14;;;;;;;7.45;5.25;;;;;;;29.40;49.66;100105.69;5041688;28;20139;-69
2022/08/18 11:56:39;;;;;;;8.80;7.28;;;;;;;28.76;49.64;100096.69;5072393;28;20040;-69
2022/08/18 11:59:24;;;;;;;6.10;5.50;;;;;;;28.46;50.86;100093.09;5076433;28;20307;-70
2022/08/18 12:01:55;;;;;;;6.70;6.05;;;;;;;28.39;51.11;100087.13;5081103;28;20112;-69
2022/08/18 12:04:42;;;;;;;7.78;5.82;;;;;;;28.34;50.90;100089.84;5086786;28;20032;-69
2022/08/18 12:07:12;;;;;;;7.50;6.28;;;;;;;28.31;51.30;100093.13;5088194;28;20074;-69
2022/08/18 12:09:43;;;;;;;5.93;5.38;;;;;;;28.31;51.35;100096.66;5088157;28;20028;-69